FYWE

Eros Airport

Windhoek, Namibia
METAR FYWE 181100Z 28004KT 9999 VCSH FEW040CB BKN050 30/05 Q1022
Observed Flight Rules
Dec-18 @ 11:00 UTC (2 hours ago) Visual Flight Rules
Wind Visibility Clouds
280° at 4 knots 10,000+ meters
  • Few at 4,000' AGL
  • Broken at 5,000' AGL
Temperatures Readings
Current 30°C / 86°F
Dewpoint 5°C / 41°F
Humidity 20%
Altimeter 30.18" Hg
Pressure 1022 hPa
Elevation 1700
METAR FYWE 181100Z 28004KT 9999 VCSH FEW040CB BKN050 30/05 Q1022
Observed Flight Rules
Dec-18 @ 11:00 UTC
(2 hours ago)
VFR
Wind Visibility
280° at 4 knots 10,000+ meters
Clouds
  • Few at 4,000' AGL
  • Broken at 5,000' AGL
Temperature Dewpoint
30°C / 86°F 5°C / 41°F
Humidity Altimeter Pressure
20% 30.18" Hg 1022 hPa